createdAt,value
2022-10-01T00:01:24.990Z,30.58
2022-10-01T00:03:52.843Z,30.10
2022-10-01T00:06:22.491Z,29.08
2022-10-01T00:08:51.224Z,30.00
2022-10-01T00:11:22.448Z,36.33
2022-10-01T00:13:50.635Z,29.92
2022-10-01T00:16:26.500Z,30.65
2022-10-01T00:19:01.898Z,26.70
2022-10-01T00:21:32.884Z,26.73
2022-10-01T00:24:07.321Z,25.85
2022-10-01T00:26:37.434Z,28.70
2022-10-01T00:29:11.803Z,24.55
2022-10-01T00:31:39.858Z,24.10
2022-10-01T00:34:13.031Z,24.25
2022-10-01T00:36:42.096Z,23.33
2022-10-01T00:39:11.550Z,22.90
2022-10-01T00:41:39.626Z,22.33
2022-10-01T00:44:36.216Z,22.73
2022-10-01T00:47:14.089Z,23.42
2022-10-01T00:49:43.297Z,26.48
2022-10-01T00:52:16.403Z,22.67
2022-10-01T00:54:58.439Z,22.25
2022-10-01T00:57:27.352Z,21.77
2022-10-01T00:59:57.550Z,21.50
2022-10-01T01:02:25.358Z,22.23
2022-10-01T01:04:53.630Z,19.77
2022-10-01T01:07:24.399Z,22.00
2022-10-01T01:09:54.918Z,20.42
2022-10-01T01:12:47.830Z,22.13
2022-10-01T01:15:41.674Z,19.40
2022-10-01T01:18:26.096Z,20.52
2022-10-01T01:21:25.790Z,18.67
2022-10-01T01:24:22.960Z,19.85
2022-10-01T01:26:55.118Z,16.05
2022-10-01T01:29:42.706Z,16.65
2022-10-01T01:32:23.030Z,16.95
2022-10-01T01:34:55.355Z,16.27
2022-10-01T01:37:27.938Z,17.73
2022-10-01T01:40:07.719Z,17.67
2022-10-01T01:42:44.540Z,17.02
2022-10-01T01:45:20.457Z,15.75
2022-10-01T01:48:03.289Z,16.10
2022-10-01T01:50:37.300Z,15.13
2022-10-01T01:53:09.961Z,15.25
2022-10-01T01:55:38.238Z,13.07
2022-10-01T01:58:08.682Z,17.58
2022-10-01T02:00:40.501Z,11.90
2022-10-01T02:03:09.682Z,13.73
2022-10-01T02:05:47.109Z,12.35
2022-10-01T02:08:35.319Z,15.18
2022-10-01T02:11:15.772Z,13.30
2022-10-01T02:13:57.599Z,16.83
2022-10-01T02:16:34.400Z,12.10
2022-10-01T02:19:22.109Z,14.05
2022-10-01T02:22:01.368Z,12.30
2022-10-01T02:24:48.605Z,12.20
2022-10-01T02:27:26.498Z,13.48
2022-10-01T02:29:57.997Z,12.27
2022-10-01T02:32:27.953Z,12.02
2022-10-01T02:34:57.290Z,14.60
2022-10-01T02:37:29.014Z,11.85
2022-10-01T02:40:00.043Z,12.68
2022-10-01T02:42:30.323Z,12.52
2022-10-01T02:45:10.614Z,12.27
2022-10-01T02:47:50.880Z,11.00
2022-10-01T02:50:24.433Z,11.77
2022-10-01T02:53:01.202Z,10.98
2022-10-01T02:55:41.379Z,11.85
2022-10-01T02:58:12.618Z,13.55
2022-10-01T03:00:40.016Z,10.65
2022-10-01T03:03:07.337Z,9.18
2022-10-01T03:05:34.570Z,9.60
2022-10-01T03:08:01.970Z,9.85
2022-10-01T03:10:29.300Z,10.40
2022-10-01T03:12:56.824Z,8.48
2022-10-01T03:15:24.281Z,9.52
2022-10-01T03:17:55.758Z,10.07
2022-10-01T03:20:22.949Z,11.05
2022-10-01T03:22:50.726Z,8.95
2022-10-01T03:25:18.380Z,13.82
2022-10-01T03:27:46.749Z,8.68
2022-10-01T03:30:14.375Z,9.07
2022-10-01T03:32:41.879Z,9.38
2022-10-01T03:35:12.584Z,8.68
2022-10-01T03:37:39.990Z,9.20
2022-10-01T03:40:10.415Z,8.73
2022-10-01T03:42:37.850Z,14.43
2022-10-01T03:45:07.582Z,9.63
2022-10-01T03:47:34.774Z,9.45
2022-10-01T03:50:02.256Z,8.95
2022-10-01T03:52:29.323Z,8.35
2022-10-01T03:54:56.608Z,8.38
2022-10-01T03:57:23.961Z,7.53
2022-10-01T03:59:51.442Z,7.78
2022-10-01T04:02:18.668Z,8.57
2022-10-01T04:04:45.966Z,8.25
2022-10-01T04:07:13.280Z,7.13
2022-10-01T04:09:40.548Z,6.85
2022-10-01T04:12:07.940Z,6.40
2022-10-01T04:14:35.286Z,7.88
2022-10-01T04:17:02.338Z,7.28
2022-10-01T04:19:30.482Z,8.23
2022-10-01T04:21:57.770Z,7.50
2022-10-01T04:24:36.465Z,7.88
2022-10-01T04:27:04.388Z,7.10
2022-10-01T04:29:34.706Z,7.78
2022-10-01T04:32:04.192Z,7.95
2022-10-01T04:34:49.778Z,7.53
2022-10-01T04:37:19.486Z,7.50
2022-10-01T04:39:51.970Z,7.25
2022-10-01T04:42:23.074Z,6.95
2022-10-01T04:44:53.667Z,7.50
2022-10-01T04:47:20.789Z,7.05
2022-10-01T04:49:47.876Z,7.57
2022-10-01T04:52:14.958Z,11.40
2022-10-01T04:54:45.031Z,7.30
2022-10-01T04:57:12.533Z,7.75
2022-10-01T04:59:39.793Z,7.63
2022-10-01T05:02:09.958Z,11.60
2022-10-01T05:04:37.298Z,7.55
2022-10-01T05:07:04.373Z,16.52
2022-10-01T05:09:31.641Z,10.20
2022-10-01T05:12:01.895Z,8.57
2022-10-01T05:14:28.932Z,8.73
2022-10-01T05:16:56.101Z,12.70
2022-10-01T05:19:27.385Z,10.68
2022-10-01T05:21:57.631Z,7.43
2022-10-01T05:24:24.680Z,8.07
2022-10-01T05:26:54.431Z,6.75
2022-10-01T05:29:21.570Z,7.18
2022-10-01T05:31:54.581Z,7.15
2022-10-01T05:34:22.124Z,7.45
2022-10-01T05:36:52.364Z,8.60
2022-10-01T05:39:23.086Z,7.20
2022-10-01T05:41:51.041Z,7.68
2022-10-01T05:44:18.246Z,6.85
2022-10-01T05:46:50.604Z,7.93
2022-10-01T05:49:25.867Z,6.35
2022-10-01T05:51:54.559Z,6.28
2022-10-01T05:54:37.800Z,6.13
2022-10-01T05:57:14.069Z,6.05
2022-10-01T05:59:44.621Z,10.65
2022-10-01T06:02:19.061Z,6.75
2022-10-01T06:04:53.929Z,6.20
2022-10-01T06:07:25.534Z,7.60
2022-10-01T06:09:57.080Z,6.13
2022-10-01T06:12:25.144Z,6.90
2022-10-01T06:14:52.052Z,6.60
2022-10-01T06:17:18.934Z,7.20
2022-10-01T06:19:48.990Z,6.82
2022-10-01T06:22:16.466Z,7.22
2022-10-01T06:24:43.432Z,6.32
2022-10-01T06:27:11.405Z,9.32
2022-10-01T06:29:41.263Z,8.32
2022-10-01T06:32:10.928Z,7.20
2022-10-01T06:34:39.858Z,9.23
2022-10-01T06:37:06.838Z,9.23
2022-10-01T06:39:34.086Z,5.90
2022-10-01T06:42:01.011Z,7.20
2022-10-01T06:44:28.053Z,4.32
2022-10-01T06:46:55.137Z,5.10
2022-10-01T06:49:23.096Z,7.50
2022-10-01T06:52:08.650Z,4.30
2022-10-01T06:57:02.564Z,26.60
2022-10-01T06:59:29.504Z,11.38
2022-10-01T07:01:56.675Z,18.17
2022-10-01T07:04:23.591Z,9.77
2022-10-01T07:06:50.441Z,8.10
2022-10-01T07:09:17.249Z,12.07
2022-10-01T07:11:44.078Z,7.97
2022-10-01T07:14:10.833Z,8.77
2022-10-01T07:16:40.708Z,11.27
2022-10-01T07:19:07.609Z,15.82
2022-10-01T07:21:34.689Z,12.68
2022-10-01T07:24:01.968Z,10.82
2022-10-01T07:26:28.766Z,7.13
2022-10-01T07:28:55.961Z,4.97
2022-10-01T07:31:24.278Z,7.63
2022-10-01T07:33:57.308Z,4.55
2022-10-01T07:36:24.332Z,3.28
2022-10-01T07:38:51.543Z,6.80
2022-10-01T07:41:18.450Z,4.63
2022-10-01T07:43:47.308Z,2.65
2022-10-01T07:46:14.220Z,3.97
2022-10-01T07:48:42.214Z,5.25
2022-10-01T07:51:09.104Z,7.78
2022-10-01T07:53:36.288Z,2.40
2022-10-01T07:56:03.539Z,1.80
2022-10-01T07:58:30.378Z,2.47
2022-10-01T08:00:58.790Z,2.10
2022-10-01T08:03:25.724Z,4.30
2022-10-01T08:05:53.803Z,1.73
2022-10-01T08:08:21.073Z,2.17
2022-10-01T08:10:50.155Z,1.42
2022-10-01T08:13:17.932Z,1.20
2022-10-01T08:15:53.716Z,2.55
2022-10-01T08:18:24.126Z,3.22
2022-10-01T08:20:50.989Z,4.95
2022-10-01T08:23:18.109Z,7.22
2022-10-01T08:25:45.367Z,3.55
2022-10-01T08:28:13.184Z,4.60
2022-10-01T08:30:42.085Z,5.75
2022-10-01T08:33:12.050Z,1.70
2022-10-01T08:35:40.511Z,2.47
2022-10-01T08:38:07.618Z,1.67
2022-10-01T08:40:41.021Z,1.27
2022-10-01T08:43:21.325Z,1.38
2022-10-01T08:45:55.155Z,3.80
2022-10-01T08:48:31.197Z,0.80
2022-10-01T08:51:07.596Z,1.75
2022-10-01T08:53:40.869Z,0.80
2022-10-01T08:56:21.821Z,0.95
2022-10-01T08:58:56.617Z,1.05
2022-10-01T09:01:23.782Z,2.53
2022-10-01T09:03:50.903Z,2.55
2022-10-01T09:06:28.025Z,0.70
2022-10-01T09:09:19.405Z,1.60
2022-10-01T09:11:52.067Z,3.08
2022-10-01T09:15:09.107Z,1.30
2022-10-01T09:17:53.754Z,1.25
2022-10-01T09:20:27.191Z,2.93
2022-10-01T09:23:20.913Z,1.60
2022-10-01T09:25:53.381Z,1.17
2022-10-01T09:28:29.157Z,3.38
2022-10-01T09:31:18.645Z,1.50
2022-10-01T09:34:13.541Z,1.85
2022-10-01T09:37:05.783Z,0.75
2022-10-01T09:39:41.780Z,1.92
2022-10-01T09:42:09.404Z,2.40
2022-10-01T09:44:37.716Z,6.00
2022-10-01T09:47:17.093Z,1.67
2022-10-01T09:49:45.032Z,3.42
2022-10-01T09:52:27.897Z,2.50
2022-10-01T09:55:08.317Z,9.20
2022-10-01T09:57:41.157Z,0.30
2022-10-01T10:00:18.409Z,0.57
2022-10-01T10:02:49.623Z,3.80
2022-10-01T10:05:20.288Z,4.03
2022-10-01T10:07:52.131Z,1.45
2022-10-01T10:10:27.691Z,0.70
2022-10-01T10:13:05.357Z,1.55
2022-10-01T10:15:33.358Z,0.90
2022-10-01T10:18:12.212Z,0.75
2022-10-01T10:20:42.273Z,0.75
2022-10-01T10:23:16.900Z,0.80
2022-10-01T10:25:44.162Z,1.23
2022-10-01T10:28:21.024Z,0.63
2022-10-01T10:30:52.987Z,2.45
2022-10-01T10:33:22.162Z,0.75
2022-10-01T10:36:05.351Z,0.77
2022-10-01T10:38:35.792Z,2.00
2022-10-01T10:41:04.033Z,1.85
2022-10-01T10:43:36.897Z,0.82
2022-10-01T10:46:05.222Z,0.95
2022-10-01T10:48:37.709Z,1.88
2022-10-01T10:51:13.182Z,0.70
2022-10-01T10:53:49.688Z,0.70
2022-10-01T10:56:24.208Z,1.00
2022-10-01T10:58:52.898Z,0.73
2022-10-01T11:01:28.932Z,1.95
2022-10-01T11:03:59.126Z,0.70
2022-10-01T11:06:28.481Z,0.77
2022-10-01T11:09:11.024Z,1.55
2022-10-01T11:11:50.109Z,1.10
2022-10-01T11:14:42.604Z,2.78
2022-10-01T11:17:31.098Z,1.33
2022-10-01T11:20:22.925Z,2.08
2022-10-01T11:23:27.970Z,2.63
2022-10-01T11:26:21.406Z,1.15
2022-10-01T11:29:04.472Z,2.58
2022-10-01T11:31:50.569Z,2.28
2022-10-01T11:34:31.963Z,0.85
2022-10-01T11:37:04.673Z,0.95
2022-10-01T11:39:35.072Z,3.90
2022-10-01T11:42:12.878Z,7.93
2022-10-01T11:44:51.948Z,1.38
2022-10-01T11:47:50.262Z,0.73
2022-10-01T11:50:25.437Z,1.75
2022-10-01T11:53:01.571Z,2.55
2022-10-01T11:55:59.668Z,2.10
2022-10-01T11:58:54.970Z,1.60
2022-10-01T12:01:28.033Z,1.10
2022-10-01T12:03:55.048Z,2.42
2022-10-01T12:06:49.610Z,1.20
2022-10-01T12:09:20.071Z,10.57
2022-10-01T12:12:06.958Z,7.95
2022-10-01T12:14:51.186Z,1.63
2022-10-01T12:17:28.674Z,1.67
2022-10-01T12:19:59.944Z,2.47
2022-10-01T12:22:31.390Z,4.18
2022-10-01T12:24:58.432Z,2.97
2022-10-01T12:27:54.144Z,4.15
2022-10-01T12:30:23.248Z,2.40
2022-10-01T12:33:31.368Z,4.57
2022-10-01T12:36:22.957Z,2.75
2022-10-01T12:38:52.535Z,4.25
2022-10-01T12:41:38.984Z,2.17
2022-10-01T12:44:18.300Z,4.43
2022-10-01T12:47:30.044Z,2.60
2022-10-01T12:50:06.692Z,5.30
2022-10-01T12:52:48.374Z,5.68
2022-10-01T12:56:06.399Z,5.93
2022-10-01T12:58:49.309Z,4.28
2022-10-01T13:01:41.056Z,5.78
2022-10-01T13:04:44.738Z,4.55
2022-10-01T13:07:14.246Z,14.63
2022-10-01T13:10:02.964Z,5.15
2022-10-01T13:12:44.956Z,7.13
2022-10-01T13:15:22.113Z,13.27
2022-10-01T13:17:55.902Z,6.65
2022-10-01T13:20:41.314Z,7.78
2022-10-01T13:23:20.501Z,5.40
2022-10-01T13:26:05.585Z,7.78
2022-10-01T13:28:58.459Z,5.85
2022-10-01T13:31:38.544Z,9.27
2022-10-01T13:34:25.968Z,2.88
2022-10-01T13:36:52.925Z,3.35
2022-10-01T13:39:24.535Z,6.95
2022-10-01T13:41:58.673Z,7.43
2022-10-01T13:44:34.388Z,3.78
2022-10-01T13:47:07.184Z,3.17
2022-10-01T13:49:36.619Z,3.55
2022-10-01T13:52:04.307Z,3.90
2022-10-01T13:54:42.801Z,3.65
2022-10-01T13:57:30.574Z,3.42
2022-10-01T14:00:20.844Z,7.75
2022-10-01T14:03:39.380Z,2.92
2022-10-01T14:06:18.582Z,4.50
2022-10-01T14:08:52.913Z,3.65
2022-10-01T14:11:44.764Z,3.42
2022-10-01T14:14:44.828Z,3.78
2022-10-01T14:17:12.944Z,5.43
2022-10-01T14:19:47.209Z,4.95
2022-10-01T14:22:35.698Z,3.47
2022-10-01T14:25:31.032Z,7.93
2022-10-01T14:28:03.614Z,3.33
2022-10-01T14:31:12.326Z,5.18
2022-10-01T14:33:51.002Z,3.85
2022-10-01T14:36:51.079Z,3.42
2022-10-01T14:39:20.510Z,4.18
2022-10-01T14:41:49.684Z,5.78
2022-10-01T14:44:23.544Z,4.85
2022-10-01T14:46:52.650Z,3.70
2022-10-01T14:49:30.860Z,4.97
2022-10-01T14:52:24.144Z,7.63
2022-10-01T14:54:57.373Z,3.00
2022-10-01T14:57:40.046Z,3.65
2022-10-01T15:00:14.065Z,7.05
2022-10-01T15:03:17.966Z,4.20
2022-10-01T15:05:47.219Z,5.47
2022-10-01T15:08:23.346Z,3.42
2022-10-01T15:10:56.353Z,5.07
2022-10-01T15:13:35.581Z,6.32
2022-10-01T15:16:03.338Z,3.53
2022-10-01T15:18:31.452Z,4.18
2022-10-01T15:21:05.830Z,5.55
2022-10-01T15:23:38.634Z,5.40
2022-10-01T15:26:11.720Z,4.13
2022-10-01T15:28:38.557Z,5.95
2022-10-01T15:31:07.061Z,8.05
2022-10-01T15:33:40.488Z,5.63
2022-10-01T15:36:17.317Z,6.28
2022-10-01T15:38:47.451Z,14.00
2022-10-01T15:41:34.083Z,7.07
2022-10-01T15:44:06.640Z,7.60
2022-10-01T15:46:35.892Z,5.97
2022-10-01T15:49:20.366Z,13.88
2022-10-01T15:52:10.376Z,8.75
2022-10-01T15:54:39.394Z,11.65
2022-10-01T15:57:07.491Z,7.55
2022-10-01T15:59:39.332Z,13.13
2022-10-01T16:02:21.307Z,13.73
2022-10-01T16:04:51.147Z,7.60
2022-10-01T16:07:21.983Z,6.28
2022-10-01T16:09:56.420Z,8.60
2022-10-01T16:12:28.458Z,6.43
2022-10-01T16:15:01.196Z,6.38
2022-10-01T16:17:31.396Z,6.38
2022-10-01T16:20:01.348Z,7.68
2022-10-01T16:22:32.005Z,7.38
2022-10-01T16:25:02.332Z,8.43
2022-10-01T16:27:35.589Z,16.40
2022-10-01T16:30:12.464Z,8.80
2022-10-01T16:32:39.808Z,7.72
2022-10-01T16:35:23.605Z,7.28
2022-10-01T16:37:53.583Z,9.20
2022-10-01T16:40:26.737Z,8.63
2022-10-01T16:42:54.542Z,7.20
2022-10-01T16:45:27.987Z,7.85
2022-10-01T16:47:59.404Z,7.47
2022-10-01T16:50:27.382Z,10.13
2022-10-01T16:53:01.380Z,8.05
2022-10-01T16:55:36.742Z,7.68
2022-10-01T17:00:31.711Z,10.68
2022-10-01T17:03:02.360Z,10.23
2022-10-01T17:05:32.805Z,7.07
2022-10-01T17:08:01.314Z,6.63
2022-10-01T17:10:31.779Z,8.05
2022-10-01T17:12:59.923Z,6.43
2022-10-01T17:15:28.336Z,6.18
2022-10-01T17:17:57.036Z,9.68
2022-10-01T17:20:26.645Z,15.57
2022-10-01T17:22:53.654Z,6.75
2022-10-01T17:25:37.866Z,7.05
2022-10-01T17:28:11.383Z,6.90
2022-10-01T17:30:46.787Z,6.57
2022-10-01T17:33:25.629Z,8.02
2022-10-01T17:35:55.951Z,6.75
2022-10-01T17:38:36.384Z,6.65
2022-10-01T17:41:04.149Z,6.97
2022-10-01T17:43:33.658Z,6.70
2022-10-01T17:46:01.914Z,6.70
2022-10-01T17:48:31.508Z,8.27
2022-10-01T17:51:04.347Z,8.25
2022-10-01T17:53:52.235Z,7.05
2022-10-01T17:56:22.452Z,7.78
2022-10-01T17:58:49.728Z,6.25
2022-10-01T18:01:20.187Z,7.00
2022-10-01T18:03:48.049Z,6.75
2022-10-01T18:06:16.428Z,6.85
2022-10-01T18:08:55.272Z,6.55
2022-10-01T18:11:25.642Z,8.40
2022-10-01T18:13:56.904Z,7.28
2022-10-01T18:16:24.440Z,11.27
2022-10-01T18:21:43.930Z,7.45
2022-10-01T18:24:11.101Z,9.15
2022-10-01T18:26:39.294Z,8.68
2022-10-01T18:29:23.952Z,12.68
2022-10-01T18:31:53.968Z,7.90
2022-10-01T18:34:32.439Z,8.57
2022-10-01T18:37:16.398Z,7.65
2022-10-01T18:39:45.865Z,7.53
2022-10-01T18:42:22.843Z,8.07
2022-10-01T18:44:57.553Z,8.18
2022-10-01T18:47:45.680Z,10.63
2022-10-01T18:50:46.578Z,9.18
2022-10-01T18:53:38.410Z,8.68
2022-10-01T18:56:28.348Z,9.10
2022-10-01T18:59:20.315Z,10.80
2022-10-01T19:02:01.385Z,10.90
2022-10-01T19:04:34.743Z,13.48
2022-10-01T19:07:04.966Z,14.98
2022-10-01T19:09:47.391Z,12.93
2022-10-01T19:12:52.064Z,14.40
2022-10-01T19:15:39.722Z,17.48
2022-10-01T19:18:25.409Z,12.75
2022-10-01T19:23:52.350Z,11.13
2022-10-01T19:26:22.546Z,11.15
2022-10-01T19:29:34.512Z,11.95
2022-10-01T19:32:10.734Z,11.00
2022-10-01T19:34:45.827Z,10.82
2022-10-01T19:37:26.187Z,10.77
2022-10-01T19:39:58.726Z,11.82
2022-10-01T19:42:33.635Z,10.65
2022-10-01T19:45:21.777Z,11.18
2022-10-01T19:48:03.352Z,9.77
2022-10-01T19:50:34.932Z,10.80
2022-10-01T19:53:04.247Z,14.35
2022-10-01T19:55:38.699Z,9.68
2022-10-01T19:58:17.788Z,11.65
2022-10-01T20:00:49.248Z,10.57
2022-10-01T20:03:51.410Z,9.15
2022-10-01T20:06:25.470Z,10.20
2022-10-01T20:08:59.812Z,10.45
2022-10-01T20:11:37.048Z,9.57
2022-10-01T20:14:44.708Z,11.02
2022-10-01T20:22:44.867Z,10.23
2022-10-01T20:25:35.295Z,13.30
2022-10-01T20:28:19.373Z,17.88
2022-10-01T20:31:16.377Z,11.40
2022-10-01T20:33:46.919Z,10.77
2022-10-01T20:36:37.790Z,10.52
2022-10-01T20:39:13.033Z,10.57
2022-10-01T20:41:49.590Z,11.85
2022-10-01T20:44:38.630Z,13.25
2022-10-01T20:47:23.047Z,10.73
2022-10-01T20:50:06.878Z,10.90
2022-10-01T20:52:48.511Z,11.38
2022-10-01T20:55:37.963Z,11.57
2022-10-01T20:58:23.786Z,12.88
2022-10-01T21:00:57.561Z,10.95
2022-10-01T21:04:01.862Z,11.00
2022-10-01T21:06:44.363Z,14.20
2022-10-01T21:09:18.246Z,11.23
2022-10-01T21:12:03.900Z,11.85
2022-10-01T21:17:56.847Z,10.23
2022-10-01T21:20:41.243Z,10.90
2022-10-01T21:23:45.863Z,15.02
2022-10-01T21:26:26.389Z,10.38
2022-10-01T21:29:19.764Z,9.77
2022-10-01T21:32:12.202Z,12.55
2022-10-01T21:35:10.278Z,10.82
2022-10-01T21:37:44.017Z,14.90
2022-10-01T21:43:31.912Z,11.95
2022-10-01T21:46:33.558Z,9.18
2022-10-01T21:49:18.009Z,10.13
2022-10-01T21:51:56.434Z,9.27
2022-10-01T21:54:29.632Z,15.48
2022-10-01T21:57:05.414Z,9.20
2022-10-01T21:59:47.820Z,10.23
2022-10-01T22:02:56.499Z,9.35
2022-10-01T22:06:01.559Z,10.48
2022-10-01T22:08:40.822Z,8.57
2022-10-01T22:11:32.085Z,8.57
2022-10-01T22:14:02.472Z,8.10
2022-10-01T22:16:41.220Z,9.88
2022-10-01T22:19:15.369Z,9.18
2022-10-01T22:21:50.604Z,8.73
2022-10-01T22:24:26.996Z,8.73
2022-10-01T22:27:16.214Z,8.65
2022-10-01T22:29:51.341Z,8.65
2022-10-01T22:32:22.920Z,7.88
2022-10-01T22:34:56.989Z,7.18
2022-10-01T22:37:56.556Z,7.88
2022-10-01T22:40:36.111Z,7.82
2022-10-01T22:43:06.085Z,8.02
2022-10-01T22:45:47.803Z,7.25
2022-10-01T22:48:36.465Z,7.65
2022-10-01T22:51:42.503Z,7.78
2022-10-01T22:54:29.864Z,7.68
2022-10-01T22:57:27.597Z,7.45
2022-10-01T23:00:09.762Z,6.55
2022-10-01T23:02:58.481Z,8.95
2022-10-01T23:05:46.103Z,6.30
2022-10-01T23:08:43.082Z,6.18
2022-10-01T23:11:47.702Z,7.78
2022-10-01T23:14:22.355Z,8.88
2022-10-01T23:16:52.191Z,5.93
2022-10-01T23:19:32.481Z,6.22
2022-10-01T23:22:29.819Z,5.60
2022-10-01T23:25:18.046Z,6.03
2022-10-01T23:27:45.152Z,5.80
2022-10-01T23:30:18.634Z,5.28
2022-10-01T23:32:45.641Z,5.95
2022-10-01T23:35:26.611Z,5.85
2022-10-01T23:38:02.123Z,6.28
2022-10-01T23:40:34.803Z,5.35
2022-10-01T23:43:22.704Z,4.95
2022-10-01T23:46:04.305Z,8.48
2022-10-01T23:48:48.921Z,5.10
2022-10-01T23:51:46.883Z,7.38
2022-10-01T23:54:47.755Z,5.43
2022-10-01T23:57:38.224Z,5.95
